Datun, China
Current Conditions -  °F | °C
As of 5:00 PM on Wednesday 22 Oct 2014 (Local Time) from ZYCC Reporting Station
Smoke Smoke  
Wind Chill: 41°   Ceiling: Unl
Heat Index: 45°   Visibility: 1.5mi
Dew Point:   Wind: 7mph
Humidity: 18%   Direction: 180°S
Pressure: 30.12"   Gusts: NA
Location:  43.75°N, 125.17°E
Report Text: ZYCC 220900Z 18003MPS 2500 FU NSC 07/M16 Q1020 BECMGTL10301400 FU
Loading
Personal Weather Stations






























Interactive Weather Map
Tropical Storm Tracking
New forecast layout! Learn more

10-Day Weather Forecast

Advertisements
Track Severe Weather on mobile